createdAt,value
2023-02-19T00:01:12.293Z,3.3
2023-02-19T00:04:14.092Z,3.1
2023-02-19T00:07:16.026Z,2.9
2023-02-19T00:10:18.011Z,2.8
2023-02-19T00:13:19.944Z,3.5
2023-02-19T00:16:21.927Z,3.5
2023-02-19T00:19:23.858Z,3.2
2023-02-19T00:22:25.836Z,3.2
2023-02-19T00:25:27.798Z,3.4
2023-02-19T00:28:29.763Z,3.2
2023-02-19T00:31:33.086Z,2.8
2023-02-19T00:34:33.688Z,2.6
2023-02-19T00:37:35.621Z,3.1
2023-02-19T00:40:37.598Z,3.2
2023-02-19T00:43:39.571Z,3.7
2023-02-19T00:46:41.604Z,3.8
2023-02-19T00:49:43.499Z,3.2
2023-02-19T00:52:45.468Z,4
2023-02-19T00:55:47.441Z,3.1
2023-02-19T00:58:49.397Z,3.4
2023-02-19T01:01:51.371Z,3.5
2023-02-19T01:04:53.392Z,3.4
2023-02-19T01:07:55.314Z,3.8
2023-02-19T01:10:57.261Z,3.9
2023-02-19T01:13:59.222Z,4
2023-02-19T01:17:01.184Z,3.2
2023-02-19T01:20:03.174Z,2.8
2023-02-19T01:23:05.182Z,3.8
2023-02-19T01:26:07.094Z,3.5
2023-02-19T01:29:09.043Z,3.7
2023-02-19T01:32:11.121Z,3.7
2023-02-19T01:35:12.957Z,3.4
2023-02-19T01:38:14.933Z,3.9
2023-02-19T01:41:16.883Z,3.6
2023-02-19T01:44:18.848Z,3.2
2023-02-19T01:47:20.808Z,4
2023-02-19T01:50:22.763Z,3.8
2023-02-19T01:53:24.724Z,3.6
2023-02-19T01:56:26.694Z,3.7
2023-02-19T01:59:28.647Z,3
2023-02-19T02:02:30.618Z,3.2
2023-02-19T02:05:32.572Z,2.9
2023-02-19T02:08:34.531Z,3.3
2023-02-19T02:11:36.542Z,3.2
2023-02-19T02:14:38.463Z,3.1
2023-02-19T02:17:40.405Z,3.3
2023-02-19T02:20:42.385Z,3.2
2023-02-19T02:23:44.348Z,2.8
2023-02-19T02:26:46.311Z,3.3
2023-02-19T02:29:48.280Z,3.1
2023-02-19T02:32:50.218Z,2.6
2023-02-19T02:35:52.198Z,3
2023-02-19T02:38:54.219Z,2.6
2023-02-19T02:41:56.102Z,3.1
2023-02-19T02:44:58.062Z,2.9
2023-02-19T02:48:00.026Z,3.2
2023-02-19T02:51:01.989Z,2.6
2023-02-19T02:54:03.967Z,2.3
2023-02-19T02:57:05.903Z,2.5
2023-02-19T03:00:07.898Z,2.2
2023-02-19T03:03:09.832Z,2.8
2023-02-19T03:06:11.799Z,2.6
2023-02-19T03:09:13.756Z,2.8
2023-02-19T03:12:15.722Z,2.6
2023-02-19T03:15:17.675Z,2.6
2023-02-19T03:18:19.648Z,2.3
2023-02-19T03:21:21.612Z,2.8
2023-02-19T03:24:23.567Z,2.6
2023-02-19T03:27:25.530Z,2.7
2023-02-19T03:30:27.527Z,3
2023-02-19T03:33:29.433Z,2.6
2023-02-19T03:36:31.426Z,2.6
2023-02-19T03:39:33.386Z,2.1
2023-02-19T03:42:35.324Z,2.4
2023-02-19T03:45:37.310Z,2.1
2023-02-19T03:48:39.262Z,2.4
2023-02-19T03:51:41.199Z,2.2
2023-02-19T03:54:43.174Z,1.9
2023-02-19T03:57:45.137Z,2.1
2023-02-19T04:00:47.078Z,1.7
2023-02-19T04:03:49.036Z,1.8
2023-02-19T04:06:51.010Z,1.7
2023-02-19T04:09:52.959Z,1.6
2023-02-19T04:12:54.932Z,1.9
2023-02-19T04:15:56.896Z,2
2023-02-19T04:18:58.859Z,1.5
2023-02-19T04:22:00.844Z,2.6
2023-02-19T04:25:02.814Z,2.1
2023-02-19T04:28:04.792Z,1.9
2023-02-19T04:31:06.785Z,1.9
2023-02-19T04:34:08.710Z,2.1
2023-02-19T04:37:10.653Z,1.9
2023-02-19T04:40:12.614Z,1.8
2023-02-19T04:43:14.583Z,1.5
2023-02-19T04:46:16.622Z,1.4
2023-02-19T04:49:18.512Z,1.3
2023-02-19T04:52:20.481Z,1.2
2023-02-19T04:55:22.442Z,0.9
2023-02-19T04:58:24.409Z,0.8
2023-02-19T05:01:26.374Z,0.9
2023-02-19T05:04:28.336Z,0.8
2023-02-19T05:07:30.272Z,0.8
2023-02-19T05:10:32.298Z,0.9
2023-02-19T05:13:34.276Z,0.7
2023-02-19T05:16:36.210Z,0.7
2023-02-19T05:19:38.182Z,0.8
2023-02-19T05:22:40.138Z,0.7
2023-02-19T05:25:42.101Z,0.6
2023-02-19T05:28:44.286Z,0.7
2023-02-19T05:31:46.117Z,0.8
2023-02-19T05:34:47.998Z,0.8
2023-02-19T05:37:49.968Z,0.6
2023-02-19T05:40:51.903Z,0.8
2023-02-19T05:43:53.865Z,0.6
2023-02-19T05:46:55.838Z,0.5
2023-02-19T05:49:57.793Z,0.5
2023-02-19T05:52:59.750Z,0.5
2023-02-19T05:56:01.698Z,0.7
2023-02-19T05:59:03.673Z,0.5
2023-02-19T06:02:05.614Z,0.5
2023-02-19T06:05:07.608Z,0.5
2023-02-19T06:08:09.562Z,0.5
2023-02-19T06:11:11.774Z,0.5
2023-02-19T06:14:13.487Z,0.5
2023-02-19T06:17:15.474Z,0.7
2023-02-19T06:20:17.431Z,0.6
2023-02-19T06:23:19.387Z,0.6
2023-02-19T06:26:21.361Z,0.7
2023-02-19T06:29:23.341Z,0.6
2023-02-19T06:32:25.347Z,0.8
2023-02-19T06:35:27.280Z,0.7
2023-02-19T06:38:29.223Z,0.6
2023-02-19T06:41:31.204Z,0.6
2023-02-19T06:44:33.158Z,0.7
2023-02-19T06:47:35.224Z,0.6
2023-02-19T06:50:37.183Z,0.7
2023-02-19T06:53:39.131Z,0.6
2023-02-19T06:56:41.095Z,0.7
2023-02-19T06:59:43.059Z,0.6
2023-02-19T07:02:44.996Z,0.9
2023-02-19T07:05:46.964Z,0.5
2023-02-19T07:08:48.927Z,0.5
2023-02-19T07:11:50.896Z,0.9
2023-02-19T07:14:52.851Z,0.6
2023-02-19T07:17:54.789Z,0.7
2023-02-19T07:20:56.764Z,0.9
2023-02-19T07:23:58.751Z,0.8
2023-02-19T07:27:00.691Z,0.8
2023-02-19T07:30:02.703Z,1.1
2023-02-19T07:33:04.639Z,0.8
2023-02-19T07:36:06.556Z,0.7
2023-02-19T07:39:10.088Z,0.9
2023-02-19T07:42:10.501Z,0.7
2023-02-19T07:45:12.464Z,0.9
2023-02-19T07:48:14.475Z,0.8
2023-02-19T07:51:16.416Z,0.7
2023-02-19T07:54:18.347Z,0.7
2023-02-19T07:57:20.326Z,0.8
2023-02-19T08:00:22.314Z,0.7
2023-02-19T08:03:24.418Z,0.9
2023-02-19T08:06:26.233Z,1.1
2023-02-19T08:09:28.176Z,0.9
2023-02-19T08:12:30.149Z,1.1
2023-02-19T08:15:32.116Z,1.1
2023-02-19T08:18:34.054Z,0.6
2023-02-19T08:21:36.036Z,0.6
2023-02-19T08:24:37.982Z,1
2023-02-19T08:27:39.978Z,0.9
2023-02-19T08:30:42.109Z,1
2023-02-19T08:33:43.922Z,1.2
2023-02-19T08:36:45.894Z,1.2
2023-02-19T08:39:47.825Z,0.9
2023-02-19T08:42:49.788Z,1.2
2023-02-19T08:45:51.788Z,1
2023-02-19T08:48:53.746Z,1.2
2023-02-19T08:51:55.672Z,1.2
2023-02-19T08:54:57.635Z,1.5
2023-02-19T08:57:59.598Z,1.6
2023-02-19T09:01:01.609Z,1.6
2023-02-19T09:04:03.550Z,1.5
2023-02-19T09:07:05.482Z,1.1
2023-02-19T09:10:07.450Z,1.5
2023-02-19T09:13:09.409Z,1.7
2023-02-19T09:16:11.439Z,1.5
2023-02-19T09:19:13.373Z,1.4
2023-02-19T09:22:15.354Z,1.4
2023-02-19T09:25:17.313Z,1.6
2023-02-19T09:28:19.265Z,1.7
2023-02-19T09:31:21.295Z,1.9
2023-02-19T09:34:23.178Z,1.8
2023-02-19T09:37:25.156Z,1.6
2023-02-19T09:40:27.105Z,1.6
2023-02-19T09:43:29.152Z,1.6
2023-02-19T09:46:31.161Z,1.6
2023-02-19T09:49:33.032Z,1.8
2023-02-19T09:52:35.008Z,2
2023-02-19T09:55:36.956Z,1.6
2023-02-19T09:58:38.914Z,1.8
2023-02-19T10:01:40.909Z,1.9
2023-02-19T10:04:42.905Z,2
2023-02-19T10:07:44.816Z,1.8
2023-02-19T10:10:46.778Z,2
2023-02-19T10:13:48.738Z,2.1
2023-02-19T10:16:50.719Z,2.1
2023-02-19T10:19:52.669Z,2.2
2023-02-19T10:22:54.642Z,2.2
2023-02-19T10:25:56.614Z,2.3
2023-02-19T10:28:58.600Z,2.7
2023-02-19T10:32:00.607Z,2.3
2023-02-19T10:35:02.517Z,2.5
2023-02-19T10:38:04.476Z,2.3
2023-02-19T10:41:06.447Z,2.5
2023-02-19T10:44:08.419Z,2.2
2023-02-19T10:47:10.390Z,2.7
2023-02-19T10:50:12.335Z,2.2
2023-02-19T10:53:14.503Z,2.8
2023-02-19T10:56:16.296Z,2.5
2023-02-19T10:59:18.245Z,2.4
2023-02-19T11:02:20.198Z,3
2023-02-19T11:05:22.259Z,2.6
2023-02-19T11:08:24.225Z,2.6
2023-02-19T11:11:26.174Z,2
2023-02-19T11:14:28.195Z,2.3
2023-02-19T11:17:30.133Z,2.4
2023-02-19T11:20:32.115Z,2.8
2023-02-19T11:23:34.055Z,2.6
2023-02-19T11:26:35.992Z,2.2
2023-02-19T11:29:37.961Z,2.2
2023-02-19T11:32:39.929Z,1.9
2023-02-19T11:35:41.874Z,2.5
2023-02-19T11:38:43.834Z,2.5
2023-02-19T11:41:45.812Z,2.2
2023-02-19T11:44:47.812Z,2.2
2023-02-19T11:47:49.795Z,2.5
2023-02-19T11:50:51.751Z,2.5
2023-02-19T11:53:53.719Z,2.2
2023-02-19T11:56:55.667Z,2
2023-02-19T11:59:57.640Z,1.7
2023-02-19T12:02:59.611Z,2.5
2023-02-19T12:06:01.573Z,2.6
2023-02-19T12:09:03.541Z,3
2023-02-19T12:12:05.509Z,2.8
2023-02-19T12:15:07.463Z,2.7
2023-02-19T12:18:09.436Z,2.9
2023-02-19T12:21:11.597Z,2.2
2023-02-19T12:24:13.356Z,2.7
2023-02-19T12:27:15.462Z,2.1
2023-02-19T12:30:17.331Z,2.6
2023-02-19T12:33:19.286Z,2.7
2023-02-19T12:36:21.257Z,3
2023-02-19T12:39:23.199Z,2.5
2023-02-19T12:42:25.184Z,2.6
2023-02-19T12:45:27.164Z,2.4
2023-02-19T12:48:29.129Z,2.4
2023-02-19T12:51:31.071Z,2.4
2023-02-19T12:54:33.084Z,2.6
2023-02-19T12:57:35.009Z,2.3
2023-02-19T13:00:36.993Z,2.4
2023-02-19T13:03:38.956Z,2.1
2023-02-19T13:06:40.914Z,2.2
2023-02-19T13:09:42.881Z,2
2023-02-19T13:12:44.995Z,2.2
2023-02-19T13:15:46.808Z,2
2023-02-19T13:18:48.786Z,2
2023-02-19T13:21:50.731Z,2.1
2023-02-19T13:24:52.702Z,2.4
2023-02-19T13:27:54.745Z,2.1
2023-02-19T13:30:56.687Z,2.1
2023-02-19T13:33:58.578Z,2
2023-02-19T13:37:00.545Z,2.3
2023-02-19T13:40:02.501Z,1.8
2023-02-19T13:43:04.458Z,2
2023-02-19T13:46:06.572Z,2.1
2023-02-19T13:49:08.379Z,1.7
2023-02-19T13:52:10.348Z,1.8
2023-02-19T13:55:12.331Z,1.9
2023-02-19T13:58:14.286Z,1.8
2023-02-19T14:01:16.280Z,1.5
2023-02-19T14:04:18.205Z,1.6
2023-02-19T14:07:20.168Z,1.6
2023-02-19T14:10:22.130Z,1.7
2023-02-19T14:13:24.125Z,2.2
2023-02-19T14:16:26.082Z,1.9
2023-02-19T14:19:28.030Z,1.6
2023-02-19T14:22:30.005Z,2
2023-02-19T14:25:32.060Z,1.8
2023-02-19T14:28:33.975Z,1.8
2023-02-19T14:31:36.047Z,1.9
2023-02-19T14:34:37.916Z,1.5
2023-02-19T14:37:39.869Z,1.4
2023-02-19T14:40:41.850Z,1.3
2023-02-19T14:43:43.820Z,1.1
2023-02-19T14:46:45.813Z,1.3
2023-02-19T14:49:47.738Z,1.1
2023-02-19T14:52:49.726Z,1.5
2023-02-19T14:55:51.660Z,1.1
2023-02-19T14:58:53.632Z,1.1
2023-02-19T15:01:55.635Z,1.1
2023-02-19T15:04:57.616Z,1.3
2023-02-19T15:07:59.480Z,0.9
2023-02-19T15:11:01.442Z,1.3
2023-02-19T15:14:03.450Z,1.6
2023-02-19T15:17:05.372Z,1.3
2023-02-19T15:20:07.406Z,1.6
2023-02-19T15:23:09.307Z,1.5
2023-02-19T15:26:11.298Z,1.5
2023-02-19T15:29:13.252Z,1.4
2023-02-19T15:32:15.229Z,1.2
2023-02-19T15:35:17.196Z,1.5
2023-02-19T15:38:19.154Z,1.5
2023-02-19T15:41:21.129Z,1.6
2023-02-19T15:44:23.090Z,1.4
2023-02-19T15:47:25.057Z,1.5
2023-02-19T15:50:27.041Z,1.3
2023-02-19T15:53:29.017Z,1.3
2023-02-19T15:56:30.992Z,1.3
2023-02-19T15:59:32.934Z,1.1
2023-02-19T16:02:34.907Z,1.1
2023-02-19T16:05:36.869Z,1.1
2023-02-19T16:08:38.845Z,1
2023-02-19T16:11:40.811Z,1.3
2023-02-19T16:14:42.779Z,1.8
2023-02-19T16:17:45.117Z,1.2
2023-02-19T16:20:46.691Z,1.4
2023-02-19T16:23:48.661Z,1.3
2023-02-19T16:26:50.647Z,1.3
2023-02-19T16:29:52.618Z,1.2
2023-02-19T16:32:54.558Z,1
2023-02-19T16:35:56.536Z,0.9
2023-02-19T16:38:58.548Z,1.5
2023-02-19T16:42:00.479Z,1.7
2023-02-19T16:45:02.444Z,1.3
2023-02-19T16:48:04.444Z,1.3
2023-02-19T16:51:06.430Z,1
2023-02-19T16:54:08.328Z,1.2
2023-02-19T16:57:10.308Z,0.9
2023-02-19T17:00:12.254Z,0.9
2023-02-19T17:03:14.215Z,1.2
2023-02-19T17:06:16.222Z,1.4
2023-02-19T17:09:18.137Z,1.1
2023-02-19T17:12:20.160Z,1.1
2023-02-19T17:15:22.081Z,1.1
2023-02-19T17:18:24.049Z,1.2
2023-02-19T17:21:26.006Z,1
2023-02-19T17:24:27.971Z,1.2
2023-02-19T17:27:29.928Z,1.2
2023-02-19T17:30:31.962Z,1.2
2023-02-19T17:33:33.858Z,1.3
2023-02-19T17:36:35.826Z,1.1
2023-02-19T17:39:37.801Z,1.3
2023-02-19T17:42:39.756Z,1.2
2023-02-19T17:45:41.746Z,1.3
2023-02-19T17:48:43.717Z,1.4
2023-02-19T17:51:45.683Z,1.7
2023-02-19T17:54:47.637Z,1.5
2023-02-19T17:57:49.608Z,1.7
2023-02-19T18:00:51.615Z,1.3
2023-02-19T18:03:53.546Z,1.8
2023-02-19T18:06:55.503Z,1.4
2023-02-19T18:09:57.478Z,1.6
2023-02-19T18:12:59.562Z,1.7
2023-02-19T18:16:01.384Z,1.3
2023-02-19T18:19:03.364Z,1.8
2023-02-19T18:22:06.609Z,1.5
2023-02-19T18:25:07.284Z,1.7
2023-02-19T18:28:09.230Z,1.9
2023-02-19T18:31:11.675Z,1.8
2023-02-19T18:34:13.162Z,1.5
2023-02-19T18:37:15.106Z,2.1
2023-02-19T18:40:17.065Z,1.8
2023-02-19T18:43:19.033Z,1.7
2023-02-19T18:46:21.025Z,1.5
2023-02-19T18:49:22.956Z,1.2
2023-02-19T18:52:24.941Z,1.8
2023-02-19T18:55:27.003Z,1.9
2023-02-19T18:58:28.916Z,1.8
2023-02-19T19:01:30.854Z,1.4
2023-02-19T19:04:32.782Z,1.5
2023-02-19T19:07:34.711Z,1.6
2023-02-19T19:10:36.684Z,1.6
2023-02-19T19:13:38.652Z,2.1
2023-02-19T19:16:40.607Z,1.8
2023-02-19T19:19:42.585Z,2.2
2023-02-19T19:22:44.566Z,1.9
2023-02-19T19:25:46.574Z,2.6
2023-02-19T19:28:48.541Z,2.5
2023-02-19T19:31:50.582Z,2.3
2023-02-19T19:34:52.472Z,1.9
2023-02-19T19:37:54.426Z,2.2
2023-02-19T19:40:56.380Z,2.6
2023-02-19T19:43:58.402Z,2.2
2023-02-19T19:47:00.365Z,2.5
2023-02-19T19:50:02.322Z,2.5
2023-02-19T19:53:04.305Z,2.7
2023-02-19T19:56:06.260Z,2.5
2023-02-19T19:59:08.214Z,2.5
2023-02-19T20:02:10.269Z,2.8
2023-02-19T20:05:12.172Z,2.3
2023-02-19T20:08:14.121Z,2.3
2023-02-19T20:11:16.053Z,3.1
2023-02-19T20:14:18.039Z,2.9
2023-02-19T20:17:19.999Z,2.3
2023-02-19T20:20:21.962Z,2.1
2023-02-19T20:23:24.501Z,2.3
2023-02-19T20:26:25.881Z,2.5
2023-02-19T20:29:27.913Z,2.6
2023-02-19T20:32:29.808Z,2.7
2023-02-19T20:35:31.763Z,3.4
2023-02-19T20:38:33.732Z,3.2
2023-02-19T20:41:35.748Z,3.2
2023-02-19T20:44:37.675Z,2.8
2023-02-19T20:47:39.647Z,3
2023-02-19T20:50:41.601Z,3
2023-02-19T20:53:43.572Z,3.1
2023-02-19T20:56:45.540Z,2.3
2023-02-19T20:59:47.485Z,3
2023-02-19T21:02:49.536Z,3.5
2023-02-19T21:05:51.445Z,3.1
2023-02-19T21:08:53.398Z,3.4
2023-02-19T21:11:55.364Z,3.6
2023-02-19T21:14:57.336Z,3.6
2023-02-19T21:17:59.381Z,3.5
2023-02-19T21:21:01.269Z,3.2
2023-02-19T21:24:03.220Z,2.8
2023-02-19T21:27:05.200Z,3.1
2023-02-19T21:30:07.210Z,3.4
2023-02-19T21:33:09.158Z,3.6
2023-02-19T21:36:11.288Z,3.8
2023-02-19T21:39:13.047Z,3.7
2023-02-19T21:42:15.061Z,4.2
2023-02-19T21:45:17.230Z,3.7
2023-02-19T21:48:18.978Z,3.5
2023-02-19T21:51:20.979Z,3.7
2023-02-19T21:54:22.939Z,3.9
2023-02-19T21:57:26.160Z,3.5
2023-02-19T22:00:26.906Z,3.3
2023-02-19T22:03:28.875Z,2.8
2023-02-19T22:06:30.834Z,2.9
2023-02-19T22:09:32.812Z,3.1
2023-02-19T22:12:34.767Z,3.2
2023-02-19T22:15:36.749Z,3.2
2023-02-19T22:18:38.700Z,3.2
2023-02-19T22:21:40.661Z,3.1
2023-02-19T22:24:42.640Z,3.4
2023-02-19T22:27:44.583Z,3.8
2023-02-19T22:30:46.551Z,3.1
2023-02-19T22:33:48.510Z,3.6
2023-02-19T22:36:50.472Z,3.6
2023-02-19T22:39:52.428Z,3.4
2023-02-19T22:42:54.383Z,3.6
2023-02-19T22:45:56.359Z,3.7
2023-02-19T22:48:58.297Z,3.2
2023-02-19T22:52:00.260Z,3.2
2023-02-19T22:55:02.234Z,2.9
2023-02-19T22:58:04.202Z,3.2
2023-02-19T23:01:06.169Z,3.5
2023-02-19T23:04:08.170Z,4.2
2023-02-19T23:07:10.161Z,4
2023-02-19T23:10:12.052Z,4.2
2023-02-19T23:13:14.022Z,4.2
2023-02-19T23:16:16.110Z,3.7
2023-02-19T23:19:17.956Z,3.8
2023-02-19T23:22:20.007Z,3.9
2023-02-19T23:25:21.903Z,4
2023-02-19T23:28:23.875Z,3.9
2023-02-19T23:31:25.996Z,4.5
2023-02-19T23:34:27.770Z,3.8
2023-02-19T23:37:29.740Z,4.6
2023-02-19T23:40:31.716Z,4.8
2023-02-19T23:43:33.672Z,3.9
2023-02-19T23:46:35.632Z,4.8
2023-02-19T23:49:37.585Z,4.3
2023-02-19T23:52:39.552Z,5
2023-02-19T23:55:41.522Z,5.3
2023-02-19T23:58:43.466Z,3.8
